Time;durP1;ratioP1;P1;durP2;ratioP2;P2;SDS_P1;SDS_P2;PMS_P1;PMS_P2;Temp;Humidity;BMP_temperature;BMP_pressure;BME280_temperature;BME280_humidity;BME280_pressure;Samples;Min_cycle;Max_cycle;Signal;HPM_P1;HPM_P2
2021/10/30 00:01:42;;;;;;;35.90;16.10;;;;;;;7.53;46.50;99412.52;113460;1193;107498;-76
2021/10/30 00:04:16;;;;;;;43.90;20.40;;;;;;;7.48;46.68;99408.70;113454;1193;94963;-73
2021/10/30 00:06:48;;;;;;;37.40;18.10;;;;;;;7.46;46.61;99408.85;113506;1193;98007;-74
2021/10/30 00:09:17;;;;;;;39.90;18.70;;;;;;;7.41;46.63;99410.48;113511;1193;111148;-75
2021/10/30 00:11:48;;;;;;;42.90;19.40;;;;;;;7.39;46.69;99411.84;113443;1194;97657;-74
2021/10/30 00:14:16;;;;;;;47.70;23.00;;;;;;;7.36;46.59;99412.20;113432;1193;108594;-74
2021/10/30 00:16:49;;;;;;;43.10;21.00;;;;;;;7.33;46.74;99412.67;113391;1186;97736;-74
2021/10/30 00:19:17;;;;;;;45.50;20.70;;;;;;;7.30;46.90;99410.73;113400;1193;97647;-75
2021/10/30 00:21:45;;;;;;;46.70;22.40;;;;;;;7.23;46.77;99414.46;113737;1193;110708;-75
2021/10/30 00:24:13;;;;;;;41.90;21.20;;;;;;;7.18;46.76;99411.73;113465;1193;95023;-74
2021/10/30 00:26:47;;;;;;;44.50;22.90;;;;;;;7.16;46.99;99412.20;113442;1193;107526;-74
2021/10/30 00:29:15;;;;;;;44.30;20.50;;;;;;;7.12;46.85;99410.95;113441;1193;97572;-75
2021/10/30 00:31:43;;;;;;;35.50;15.70;;;;;;;7.09;46.98;99408.52;114263;1193;97670;-74
2021/10/30 00:34:12;;;;;;;39.40;16.70;;;;;;;7.07;47.17;99404.73;113393;1193;111150;-75
2021/10/30 00:36:46;;;;;;;37.90;18.40;;;;;;;7.02;47.18;99405.84;113485;1193;97524;-75
2021/10/30 00:39:14;;;;;;;46.10;21.70;;;;;;;6.98;47.14;99406.60;113345;1193;107104;-74
2021/10/30 00:41:51;;;;;;;41.50;20.70;;;;;;;6.97;47.38;99407.50;114431;1193;97674;-75
2021/10/30 00:44:25;;;;;;;43.10;19.60;;;;;;;6.99;47.33;99404.45;113505;1193;97596;-78
2021/10/30 00:46:53;;;;;;;36.70;18.20;;;;;;;6.95;47.41;99402.50;113512;1193;110756;-77
2021/10/30 00:49:28;;;;;;;44.60;18.40;;;;;;;6.92;47.28;99397.55;113514;1193;97563;-74
2021/10/30 00:52:02;;;;;;;43.90;20.40;;;;;;;6.91;47.45;99397.08;113531;1193;107457;-74
2021/10/30 00:54:37;;;;;;;42.80;21.20;;;;;;;6.83;47.32;99391.88;113558;1193;97796;-73
2021/10/30 00:57:11;;;;;;;42.10;20.50;;;;;;;6.77;47.42;99391.63;113561;1192;97639;-74
2021/10/30 00:59:39;;;;;;;45.40;21.40;;;;;;;6.75;47.45;99387.70;113597;1193;111265;-74
2021/10/30 01:02:07;;;;;;;46.00;21.40;;;;;;;6.71;47.52;99388.42;113418;1193;97562;-73
2021/10/30 01:04:35;;;;;;;44.30;21.40;;;;;;;6.67;47.48;99386.66;113910;1193;106684;-73
2021/10/30 01:07:13;;;;;;;45.80;21.50;;;;;;;6.62;47.70;99383.42;113920;1193;95016;-74
2021/10/30 01:09:41;;;;;;;43.70;20.60;;;;;;;6.59;47.76;99384.10;113890;1192;97552;-74
2021/10/30 01:12:12;;;;;;;48.80;24.80;;;;;;;6.53;47.64;99381.91;113691;1192;111173;-73
2021/10/30 01:14:42;;;;;;;44.40;21.10;;;;;;;6.50;47.95;99377.52;113792;1193;97529;-74
2021/10/30 01:17:15;;;;;;;39.20;18.80;;;;;;;6.47;47.92;99375.73;113747;1193;107509;-75
2021/10/30 01:19:43;;;;;;;37.40;17.50;;;;;;;6.44;47.77;99374.61;113769;1192;97570;-75
2021/10/30 01:22:11;;;;;;;44.40;20.00;;;;;;;6.40;48.03;99372.00;114382;1192;95392;-74
2021/10/30 01:24:44;;;;;;;38.30;18.50;;;;;;;6.36;48.15;99373.79;113839;1193;111147;-74
2021/10/30 01:27:20;;;;;;;43.90;21.50;;;;;;;6.34;48.01;99371.27;113807;1193;97621;-74
2021/10/30 01:29:53;;;;;;;38.70;18.10;;;;;;;6.29;48.14;99365.52;113359;1193;107521;-73
2021/10/30 01:32:21;;;;;;;;;;;;;;;6.25;48.17;99363.26;113885;1193;97586;-74
2021/10/30 01:34:49;;;;;;;48.70;24.20;;;;;;;6.20;48.33;99363.33;113969;1193;95020;-74
2021/10/30 01:37:17;;;;;;;52.70;25.80;;;;;;;6.20;48.31;99355.06;113927;1192;111440;-75
2021/10/30 01:39:45;;;;;;;58.10;25.20;;;;;;;6.21;48.35;99353.40;113930;1192;95039;-75
2021/10/30 01:42:13;;;;;;;50.50;24.90;;;;;;;6.21;48.49;99356.91;113432;1193;107541;-74
2021/10/30 01:44:41;;;;;;;51.60;25.60;;;;;;;6.20;48.22;99355.38;113428;1193;97717;-74
2021/10/30 01:47:08;;;;;;;50.40;25.20;;;;;;;6.20;48.37;99351.71;113913;1192;97603;-75
2021/10/30 01:49:36;;;;;;;50.00;24.60;;;;;;;6.20;48.56;99351.36;113929;1192;111151;-74
2021/10/30 01:52:04;;;;;;;51.50;24.40;;;;;;;6.19;48.65;99351.23;113929;1192;97561;-76
2021/10/30 01:54:37;;;;;;;48.00;24.00;;;;;;;6.16;48.50;99349.27;113889;1192;107579;-75
2021/10/30 01:57:09;;;;;;;45.40;23.60;;;;;;;6.11;48.64;99353.52;113796;1193;96981;-74
2021/10/30 01:59:37;;;;;;;48.20;23.20;;;;;;;6.08;48.64;99354.57;113901;1193;95749;-75
2021/10/30 02:02:05;;;;;;;46.00;23.10;;;;;;;6.07;48.74;99356.89;113966;1192;111167;-75
2021/10/30 02:04:33;;;;;;;49.30;23.80;;;;;;;6.06;48.71;99359.08;113455;1192;97586;-75
2021/10/30 02:07:01;;;;;;;47.60;22.20;;;;;;;6.03;48.86;99359.06;113392;1192;107490;-74
2021/10/30 02:09:35;;;;;;;49.10;24.70;;;;;;;6.00;48.72;99354.80;113813;1193;97691;-75
2021/10/30 02:12:08;;;;;;;;;;;;;;;5.99;49.02;99358.50;113565;1193;97990;-75
2021/10/30 02:14:36;;;;;;;47.90;22.90;;;;;;;5.97;49.11;99359.13;113414;1193;110959;-75
2021/10/30 02:17:04;;;;;;;41.40;20.50;;;;;;;5.96;48.94;99359.34;113474;1193;97498;-76
2021/10/30 02:19:32;;;;;;;44.00;20.20;;;;;;;5.95;49.00;99355.34;113326;1193;107480;-76
2021/10/30 02:22:00;;;;;;;39.30;18.50;;;;;;;5.91;48.83;99354.12;113999;1193;97554;-76
2021/10/30 02:24:28;;;;;;;46.80;23.30;;;;;;;5.89;49.02;99359.70;113847;1193;95381;-75
2021/10/30 02:26:56;;;;;;;55.90;29.20;;;;;;;5.88;49.20;99359.91;113529;1193;111293;-76
2021/10/30 02:29:23;;;;;;;55.60;30.20;;;;;;;5.89;49.25;99354.95;113366;1193;95704;-74
2021/10/30 02:31:53;;;;;;;44.70;22.70;;;;;;;5.87;49.42;99356.80;113614;1192;107798;-74
2021/10/30 02:34:22;;;;;;;31.20;15.70;;;;;;;5.84;49.20;99355.02;114037;1192;97602;-74
2021/10/30 02:36:51;;;;;;;43.50;23.30;;;;;;;5.79;49.27;99354.19;113469;1193;97650;-74
2021/10/30 02:39:19;;;;;;;45.50;24.20;;;;;;;5.75;49.19;99352.58;113503;1193;111162;-74
2021/10/30 02:41:47;;;;;;;58.10;31.30;;;;;;;5.73;49.29;99348.85;113901;1192;97708;-74
2021/10/30 02:44:15;;;;;;;62.60;32.90;;;;;;;5.68;49.35;99348.23;113687;1193;107473;-73
2021/10/30 02:46:44;;;;;;;57.50;32.00;;;;;;;5.64;49.53;99347.16;113862;1192;97556;-74
2021/10/30 02:49:11;;;;;;;67.10;36.00;;;;;;;5.64;49.38;99348.73;113913;1192;98106;-74
2021/10/30 02:51:39;;;;;;;62.80;33.80;;;;;;;5.63;49.49;99346.33;113820;1192;111174;-75
2021/10/30 02:54:07;;;;;;;60.80;34.40;;;;;;;5.66;49.53;99350.23;113511;1193;98021;-76
2021/10/30 02:56:35;;;;;;;63.30;36.50;;;;;;;5.69;49.85;99347.98;113947;1192;106091;-74
2021/10/30 02:59:09;;;;;;;62.30;33.60;;;;;;;5.71;49.69;99345.05;113941;1193;97650;-75
2021/10/30 03:01:37;;;;;;;57.30;30.60;;;;;;;5.73;49.82;99340.40;113967;1192;97531;-75
2021/10/30 03:04:14;;;;;;;55.70;30.40;;;;;;;5.72;49.81;99340.59;113946;1192;111071;-74
2021/10/30 03:06:42;;;;;;;58.60;31.50;;;;;;;5.71;49.85;99337.14;113925;1192;97559;-76
2021/10/30 03:09:10;;;;;;;56.30;31.70;;;;;;;5.70;50.08;99344.95;113941;1193;107529;-75
2021/10/30 03:11:43;;;;;;;51.60;26.70;;;;;;;5.68;49.99;99339.93;113548;1193;97648;-77
2021/10/30 03:14:11;;;;;;;56.40;28.80;;;;;;;5.67;50.02;99340.52;113969;1191;95042;-76
2021/10/30 03:16:39;;;;;;;56.00;30.50;;;;;;;5.64;50.10;99340.63;113951;1192;111291;-75
2021/10/30 03:19:07;;;;;;;46.90;25.10;;;;;;;5.63;50.02;99341.38;113977;1193;95052;-73
2021/10/30 03:21:35;;;;;;;49.30;25.20;;;;;;;5.60;50.16;99341.02;113977;1193;105643;-74
2021/10/30 03:24:07;;;;;;;54.00;26.90;;;;;;;5.56;50.14;99338.22;113986;1193;97734;-74
2021/10/30 03:26:35;;;;;;;47.10;25.00;;;;;;;5.52;50.18;99341.76;113967;1193;97657;-74
2021/10/30 03:29:08;;;;;;;50.90;24.80;;;;;;;5.47;50.26;99344.59;113923;1192;111888;-75
2021/10/30 03:31:36;;;;;;;42.60;22.10;;;;;;;5.42;50.14;99347.12;113926;1193;95048;-75
2021/10/30 03:34:04;;;;;;;45.80;24.10;;;;;;;5.38;50.16;99349.24;113908;1192;107471;-74
2021/10/30 03:36:32;;;;;;;46.90;23.40;;;;;;;5.35;50.20;99345.34;113908;1192;97622;-75
2021/10/30 03:39:05;;;;;;;52.20;27.50;;;;;;;5.32;50.40;99344.61;113897;1192;94991;-74
2021/10/30 03:41:37;;;;;;;48.60;26.90;;;;;;;5.30;50.34;99345.27;113890;1193;110807;-74
2021/10/30 03:44:05;;;;;;;55.50;28.50;;;;;;;5.26;50.42;99341.73;113862;1193;97569;-73
2021/10/30 03:46:33;;;;;;;48.40;26.50;;;;;;;5.22;50.43;99340.50;113765;1192;107504;-74
2021/10/30 03:49:01;;;;;;;49.70;26.70;;;;;;;5.19;50.46;99340.62;113700;1192;97528;-73
2021/10/30 03:51:29;;;;;;;52.70;29.40;;;;;;;5.17;50.51;99341.26;113951;1192;97612;-73
2021/10/30 03:53:57;;;;;;;51.30;28.40;;;;;;;5.14;50.55;99343.66;113970;1192;111209;-73
2021/10/30 03:56:24;;;;;;;52.10;27.90;;;;;;;5.12;50.75;99339.54;113944;1193;97647;-73
2021/10/30 03:58:52;;;;;;;48.30;25.50;;;;;;;5.09;50.77;99337.75;113951;1192;107097;-73
2021/10/30 04:01:20;;;;;;;50.10;26.60;;;;;;;5.05;50.71;99334.93;114253;1192;95402;-76
2021/10/30 04:03:48;;;;;;;48.00;25.80;;;;;;;5.03;50.73;99336.95;113925;1193;95132;-72
2021/10/30 04:06:17;;;;;;;50.80;25.70;;;;;;;5.03;50.76;99333.11;114232;1192;111132;-75
2021/10/30 04:08:45;;;;;;;47.80;25.90;;;;;;;5.01;50.88;99334.05;113786;1192;96086;-74
2021/10/30 04:11:19;;;;;;;;;;;;;;;5.00;51.06;99332.89;113325;1193;107478;-72
2021/10/30 04:13:52;;;;;;;55.10;26.60;;;;;;;4.95;51.14;99331.52;113904;1192;97582;-74
2021/10/30 04:16:22;;;;;;;53.00;28.20;;;;;;;4.93;50.93;99332.29;113965;1192;97534;-74
2021/10/30 04:18:50;;;;;;;48.90;27.60;;;;;;;4.92;51.11;99329.39;113870;1192;111164;-75
2021/10/30 04:21:18;;;;;;;54.60;28.40;;;;;;;4.92;51.12;99328.66;113942;1193;97673;-74
2021/10/30 04:23:46;;;;;;;49.20;26.60;;;;;;;4.93;51.13;99325.45;113949;1192;107506;-75
2021/10/30 04:26:19;;;;;;;58.60;31.80;;;;;;;4.94;51.14;99319.96;113893;1193;96410;-75
2021/10/30 04:28:47;;;;;;;54.30;30.80;;;;;;;4.94;51.14;99320.15;113962;1192;97496;-74
2021/10/30 04:31:21;;;;;;;57.70;30.10;;;;;;;4.95;51.19;99316.77;113707;1192;111137;-75
2021/10/30 04:33:54;;;;;;;56.40;31.00;;;;;;;4.97;51.30;99320.36;113433;1192;95009;-73
2021/10/30 04:36:24;;;;;;;53.10;30.50;;;;;;;4.95;51.26;99315.35;113327;1193;107480;-74
2021/10/30 04:38:54;;;;;;;49.90;26.80;;;;;;;4.92;51.34;99312.11;113393;1192;97575;-75
2021/10/30 04:41:22;;;;;;;48.90;25.50;;;;;;;4.91;51.24;99312.73;113493;1192;96521;-74
2021/10/30 04:43:50;;;;;;;39.70;21.00;;;;;;;4.81;51.25;99308.95;113405;1192;111186;-74
2021/10/30 04:46:26;;;;;;;39.20;20.60;;;;;;;4.73;51.20;99309.11;113622;1192;97559;-72
2021/10/30 04:48:54;;;;;;;46.00;22.20;;;;;;;4.70;51.39;99308.73;113413;1192;107342;-72
2021/10/30 04:51:22;;;;;;;40.90;21.00;;;;;;;4.67;51.39;99310.30;113854;1193;97654;-73
2021/10/30 04:53:49;;;;;;;45.60;22.10;;;;;;;4.64;51.49;99310.06;113921;1192;97649;-72
2021/10/30 04:56:23;;;;;;;44.70;21.30;;;;;;;4.61;51.35;99308.60;113865;1193;111226;-73
2021/10/30 04:58:50;;;;;;;51.20;27.90;;;;;;;4.62;51.48;99307.84;113424;1192;95720;-72
2021/10/30 05:01:19;;;;;;;42.40;24.00;;;;;;;4.63;51.71;99305.17;113388;1192;107554;-73
2021/10/30 05:03:47;;;;;;;45.60;25.20;;;;;;;4.67;51.73;99307.14;114337;1192;96933;-73
2021/10/30 05:06:15;;;;;;;57.20;25.90;;;;;;;4.69;51.64;99303.50;113545;1193;97631;-75
2021/10/30 05:08:43;;;;;;;50.70;26.60;;;;;;;4.72;51.61;99305.31;113439;1193;110238;-75
2021/10/30 05:11:11;;;;;;;46.40;23.00;;;;;;;4.74;51.82;99299.23;113664;1192;97528;-78
2021/10/30 05:13:44;;;;;;;44.90;23.90;;;;;;;4.79;52.03;99295.85;113754;1192;107503;-75
2021/10/30 05:16:12;;;;;;;35.10;17.10;;;;;;;4.84;51.86;99296.71;114214;1192;97741;-75
2021/10/30 05:18:41;;;;;;;37.80;18.80;;;;;;;4.94;52.19;99300.82;114139;1193;95449;-76
2021/10/30 05:21:09;;;;;;;34.20;16.90;;;;;;;5.03;51.93;99300.08;113916;1192;111119;-73
2021/10/30 05:23:42;;;;;;;40.50;18.50;;;;;;;5.19;52.34;99301.08;113395;1192;95041;-79
2021/10/30 05:26:15;;;;;;;42.90;18.70;;;;;;;5.35;52.18;99296.27;113555;1192;107511;-75
2021/10/30 05:28:48;;;;;;;34.80;18.60;;;;;;;5.52;52.30;99297.39;113412;1193;97556;-73
2021/10/30 05:31:16;;;;;;;33.20;16.80;;;;;;;5.66;52.33;99292.86;113894;1192;97622;-74
2021/10/30 05:33:44;;;;;;;31.80;15.10;;;;;;;5.81;52.45;99290.73;113667;1193;110174;-75
2021/10/30 05:36:12;;;;;;;36.40;18.30;;;;;;;5.92;52.55;99287.20;113824;1192;96068;-75
2021/10/30 05:38:50;;;;;;;51.60;27.40;;;;;;;5.92;52.27;99290.53;113940;1192;108092;-74
2021/10/30 05:41:22;;;;;;;50.40;26.90;;;;;;;5.79;52.14;99295.41;113759;1193;97712;-74
2021/10/30 05:43:51;;;;;;;58.00;32.30;;;;;;;5.72;52.09;99299.61;113775;1192;97662;-76
2021/10/30 05:46:19;;;;;;;61.60;33.80;;;;;;;5.69;52.27;99303.10;113774;1193;109305;-76
2021/10/30 05:48:47;;;;;;;61.90;35.60;;;;;;;5.65;52.36;99300.65;113902;1193;97625;-76
2021/10/30 05:51:17;;;;;;;68.70;37.10;;;;;;;5.63;52.33;99299.86;113536;1193;105724;-75
2021/10/30 05:53:45;;;;;;;63.30;35.80;;;;;;;5.63;52.55;99301.80;113788;1192;97677;-75
2021/10/30 05:56:13;;;;;;;64.90;36.10;;;;;;;5.66;52.49;99302.02;113699;1192;95043;-74
2021/10/30 05:58:41;;;;;;;63.60;34.70;;;;;;;5.68;52.61;99306.48;113881;1193;111136;-75
2021/10/30 06:01:08;;;;;;;58.30;32.50;;;;;;;5.69;52.47;99304.16;113900;1192;97639;-75
2021/10/30 06:03:41;;;;;;;62.50;36.10;;;;;;;5.68;52.73;99306.87;113646;1192;107461;-75
2021/10/30 06:06:09;;;;;;;58.30;30.90;;;;;;;5.67;52.60;99303.91;113516;1193;97609;-72
2021/10/30 06:08:42;;;;;;;58.00;32.00;;;;;;;5.69;52.81;99305.41;113567;1192;97694;-75
2021/10/30 06:11:10;;;;;;;61.30;33.40;;;;;;;5.72;52.86;99306.50;113545;1192;111857;-71
2021/10/30 06:13:38;;;;;;;57.70;32.00;;;;;;;5.73;52.91;99304.52;113527;1192;97544;-74
2021/10/30 06:16:08;;;;;;;52.50;27.90;;;;;;;5.75;52.82;99305.13;113241;1192;109254;-74
2021/10/30 06:18:36;;;;;;;52.00;29.70;;;;;;;5.77;52.93;99303.59;113433;1193;97672;-74
2021/10/30 06:21:04;;;;;;;38.10;19.30;;;;;;;5.83;52.99;99301.20;113424;1193;97615;-74
2021/10/30 06:23:32;;;;;;;37.00;18.30;;;;;;;5.95;52.95;99297.42;113378;1192;110810;-72
2021/10/30 06:26:01;;;;;;;35.10;16.60;;;;;;;6.16;53.24;99299.80;113453;1192;95047;-71
2021/10/30 06:28:28;;;;;;;35.60;17.00;;;;;;;6.36;53.09;99302.98;113398;1192;107491;-70
2021/10/30 06:30:56;;;;;;;29.50;14.30;;;;;;;6.67;53.88;99298.06;113477;1193;95735;-75
2021/10/30 06:33:29;;;;;;;29.50;12.60;;;;;;;7.08;53.95;99299.39;113506;1193;95162;-72
2021/10/30 06:35:57;;;;;;;26.40;10.30;;;;;;;7.51;54.26;99301.25;113646;1192;111150;-72
2021/10/30 06:38:28;;;;;;;24.80;10.30;;;;;;;7.88;54.08;99298.11;113496;1193;95042;-74
2021/10/30 06:40:59;;;;;;;21.90;9.40;;;;;;;8.23;54.43;99296.81;113493;1192;107227;-75
2021/10/30 06:43:29;;;;;;;24.10;10.30;;;;;;;8.63;54.86;99298.68;113583;1192;97562;-71
2021/10/30 06:46:02;;;;;;;22.10;9.00;;;;;;;9.00;54.75;99294.49;113648;1192;96895;-72
2021/10/30 06:48:31;;;;;;;21.00;9.10;;;;;;;9.30;54.65;99295.96;113106;1192;111173;-73
2021/10/30 06:50:58;;;;;;;23.60;10.10;;;;;;;9.55;54.63;99293.30;113469;1192;96100;-72
2021/10/30 06:53:28;;;;;;;22.10;9.10;;;;;;;9.76;54.65;99297.80;113505;1192;107606;-73
2021/10/30 06:55:58;;;;;;;23.10;9.00;;;;;;;10.00;54.75;99295.20;113421;1192;98000;-72
2021/10/30 06:58:32;;;;;;;21.90;9.30;;;;;;;10.25;54.98;99295.28;113969;1192;95753;-74
2021/10/30 07:01:00;;;;;;;27.90;11.10;;;;;;;10.49;55.05;99293.30;114165;1192;112260;-74
2021/10/30 07:03:29;;;;;;;25.20;10.60;;;;;;;10.70;54.68;99291.86;115128;1192;96231;-75
2021/10/30 07:05:57;;;;;;;25.70;10.20;;;;;;;10.85;54.65;99294.42;114053;1192;108047;-75
2021/10/30 07:08:25;;;;;;;25.20;9.60;;;;;;;10.99;54.43;99294.61;114192;1192;98015;-77
2021/10/30 07:10:53;;;;;;;25.10;11.00;;;;;;;11.12;54.60;99293.41;113619;1193;95672;-76
2021/10/30 07:13:23;;;;;;;27.00;12.20;;;;;;;11.27;54.37;99296.64;113791;1193;111114;-78
2021/10/30 07:15:51;;;;;;;28.40;13.20;;;;;;;11.38;54.05;99294.95;113773;1193;97504;-75
2021/10/30 07:18:19;;;;;;;29.50;12.60;;;;;;;11.44;54.07;99293.55;113721;1192;107499;-78
2021/10/30 07:20:48;;;;;;;28.80;11.40;;;;;;;11.51;53.93;99295.80;113604;1192;97694;-78
2021/10/30 07:23:17;;;;;;;24.60;11.00;;;;;;;11.56;53.89;99298.93;113541;1192;97655;-78
2021/10/30 07:25:45;;;;;;;26.40;10.90;;;;;;;11.62;53.87;99299.39;113545;1192;111121;-81
2021/10/30 07:28:13;;;;;;;23.50;10.00;;;;;;;11.69;53.89;99300.85;113556;1192;97738;-75
2021/10/30 07:30:40;;;;;;;22.20;9.60;;;;;;;11.75;53.83;99300.91;113500;1193;109169;-80
2021/10/30 07:33:13;;;;;;;24.20;10.10;;;;;;;11.87;54.00;99295.79;113507;1192;97655;-77
2021/10/30 07:35:43;;;;;;;22.00;9.50;;;;;;;12.00;53.84;99295.06;113327;1193;96116;-78
2021/10/30 07:38:13;;;;;;;24.00;10.00;;;;;;;12.12;53.81;99293.63;113504;1192;111620;-75
2021/10/30 07:40:41;;;;;;;22.20;8.90;;;;;;;12.23;53.79;99295.31;113642;1193;96736;-77
2021/10/30 07:43:09;;;;;;;20.80;9.30;;;;;;;12.32;53.68;99297.29;113720;1192;107708;-75
2021/10/30 07:45:37;;;;;;;26.80;10.10;;;;;;;12.39;53.61;99297.64;113487;1192;98242;-78
2021/10/30 07:48:08;;;;;;;23.70;9.50;;;;;;;12.48;53.68;99293.21;113603;1192;95167;-71
2021/10/30 07:50:41;;;;;;;25.20;10.40;;;;;;;12.59;53.57;99294.30;113565;1192;110173;-73
2021/10/30 07:53:09;;;;;;;21.30;9.50;;;;;;;12.73;53.63;99295.23;113525;1192;97646;-78
2021/10/30 07:55:37;;;;;;;20.70;8.80;;;;;;;12.83;53.54;99297.65;113687;1192;107476;-73
2021/10/30 07:58:04;;;;;;;22.00;8.80;;;;;;;12.91;53.47;99293.95;113607;1193;97551;-74
2021/10/30 08:00:34;;;;;;;24.00;9.10;;;;;;;13.01;53.44;99288.75;113674;1192;95723;-73
2021/10/30 08:03:03;;;;;;;21.40;9.80;;;;;;;13.11;53.27;99286.04;113553;1192;111170;-75
2021/10/30 08:05:32;;;;;;;22.80;10.00;;;;;;;13.23;52.89;99289.70;113367;1193;97625;-74
2021/10/30 08:07:59;;;;;;;25.50;10.40;;;;;;;13.34;52.74;99286.48;113688;1192;107506;-76
2021/10/30 08:10:27;;;;;;;22.10;9.10;;;;;;;13.45;52.65;99278.30;113714;1192;95042;-73
2021/10/30 08:12:56;;;;;;;20.90;8.20;;;;;;;13.56;52.53;99275.87;113629;1192;97630;-74
2021/10/30 08:15:24;;;;;;;23.10;10.60;;;;;;;13.67;52.46;99276.37;113311;1192;111206;-72
2021/10/30 08:17:52;;;;;;;20.10;8.60;;;;;;;13.76;52.44;99276.92;113762;1192;97465;-73
2021/10/30 08:20:22;;;;;;;21.20;8.60;;;;;;;13.82;52.28;99277.61;113686;1192;107492;-74
2021/10/30 08:22:50;;;;;;;21.00;8.50;;;;;;;13.90;52.27;99279.09;113544;1192;95019;-74
2021/10/30 08:25:17;;;;;;;20.40;8.10;;;;;;;14.00;52.27;99277.95;113674;1192;97423;-72
2021/10/30 08:27:45;;;;;;;21.80;8.40;;;;;;;14.11;52.12;99274.19;113706;1192;112179;-72
2021/10/30 08:30:15;;;;;;;18.90;8.10;;;;;;;14.29;52.01;99274.09;113723;1192;95723;-69
2021/10/30 08:32:45;;;;;;;20.20;7.40;;;;;;;14.51;51.82;99274.40;113725;1192;108369;-72
2021/10/30 08:35:14;;;;;;;20.50;7.70;;;;;;;14.74;51.05;99273.66;113768;1192;95887;-73
2021/10/30 08:37:42;;;;;;;18.20;7.90;;;;;;;15.02;50.88;99271.13;113642;1192;97669;-80
2021/10/30 08:40:12;;;;;;;21.90;8.40;;;;;;;15.32;51.00;99271.30;113770;1192;110263;-78
2021/10/30 08:43:01;;;;;;;19.20;7.90;;;;;;;15.67;50.95;99270.11;113356;1192;97097;-79
2021/10/30 08:45:35;;;;;;;19.60;8.20;;;;;;;15.97;50.85;99277.47;113678;1193;107114;-76
2021/10/30 08:48:06;;;;;;;20.20;8.30;;;;;;;16.29;50.76;99269.30;113580;1192;97612;-78
2021/10/30 08:50:35;;;;;;;20.00;8.50;;;;;;;16.62;50.46;99273.09;113708;1193;96614;-76
2021/10/30 08:53:03;;;;;;;19.50;8.00;;;;;;;17.04;50.13;99269.81;114490;1192;111165;-76
2021/10/30 08:55:31;;;;;;;18.40;7.10;;;;;;;17.44;50.15;99272.13;113688;1192;97524;-79
2021/10/30 08:58:07;;;;;;;20.60;8.20;;;;;;;17.72;49.64;99268.96;113386;1192;107953;-78
2021/10/30 09:00:46;;;;;;;18.70;7.80;;;;;;;17.97;49.80;99270.27;113454;1192;97609;-79
2021/10/30 09:03:18;;;;;;;18.90;8.20;;;;;;;18.26;49.61;99270.44;113758;1193;97682;-79
2021/10/30 09:05:49;;;;;;;;;;;;;;;18.67;49.46;99265.91;113415;1193;111306;-76
2021/10/30 09:08:28;;;;;;;16.40;7.30;;;;;;;19.24;49.62;99270.65;113519;1192;97569;-72
2021/10/30 09:11:09;;;;;;;16.00;7.00;;;;;;;19.92;49.44;99274.36;113355;1193;107493;-82
2021/10/30 09:13:42;;;;;;;20.40;9.00;;;;;;;20.52;48.68;99267.16;113713;1192;97530;-75
2021/10/30 09:16:14;;;;;;;;;;;;;;;20.91;48.96;99274.83;113590;1192;97619;-75
2021/10/30 09:18:44;;;;;;;16.90;7.90;;;;;;;21.17;48.92;99280.47;113662;1192;111161;-69
2021/10/30 09:21:21;;;;;;;19.30;6.70;;;;;;;21.43;48.50;99281.46;113508;1192;95798;-70
2021/10/30 09:23:52;;;;;;;16.40;6.90;;;;;;;21.40;47.01;99283.13;113590;1192;105914;-70
2021/10/30 09:26:34;;;;;;;18.00;7.90;;;;;;;21.14;47.35;99287.85;113750;1193;96879;-70
2021/10/30 09:29:14;;;;;;;16.70;7.40;;;;;;;20.94;46.93;99296.06;113784;1192;97627;-72
2021/10/30 09:31:43;;;;;;;18.90;7.90;;;;;;;20.86;46.97;99288.88;113760;1193;111144;-69
2021/10/30 09:34:12;;;;;;;17.60;7.30;;;;;;;20.82;46.76;99288.31;113763;1192;97547;-69
2021/10/30 09:36:45;;;;;;;18.80;8.10;;;;;;;20.82;46.47;99291.42;113694;1187;108475;-71
2021/10/30 09:39:18;;;;;;;17.60;7.90;;;;;;;20.80;46.48;99287.27;113733;1193;98295;-70
2021/10/30 09:41:54;;;;;;;17.80;7.70;;;;;;;20.82;45.98;99286.76;113757;1192;97617;-73
2021/10/30 09:44:27;;;;;;;17.80;7.90;;;;;;;20.68;44.25;99284.52;113743;1192;111176;-72
2021/10/30 09:47:01;;;;;;;18.00;8.00;;;;;;;20.52;44.93;99276.90;113638;1192;97556;-70
2021/10/30 09:49:34;;;;;;;17.10;7.70;;;;;;;20.51;44.56;99276.02;113595;1192;107448;-71
2021/10/30 09:52:10;;;;;;;18.20;7.50;;;;;;;20.55;44.69;99277.98;113666;1192;95032;-71
2021/10/30 09:54:48;;;;;;;18.20;7.20;;;;;;;20.67;44.66;99273.93;113776;1192;97625;-72
2021/10/30 09:57:26;;;;;;;18.00;7.90;;;;;;;20.74;43.49;99273.92;113533;1192;111619;-71
2021/10/30 10:00:04;;;;;;;21.10;9.50;;;;;;;20.46;40.53;99273.42;113584;1177;97709;-72
2021/10/30 10:02:38;;;;;;;18.70;8.20;;;;;;;20.15;40.73;99273.55;113372;1193;107472;-72
2021/10/30 10:05:08;;;;;;;20.30;9.10;;;;;;;20.07;41.56;99271.66;113448;1193;96507;-71
2021/10/30 10:07:37;;;;;;;22.90;10.80;;;;;;;20.04;39.79;99269.52;113787;1193;95061;-71
2021/10/30 10:10:06;;;;;;;21.70;9.10;;;;;;;19.91;40.18;99268.24;113780;1192;110951;-70
2021/10/30 10:12:38;;;;;;;19.90;7.80;;;;;;;19.87;40.14;99265.55;113834;1192;96061;-70
2021/10/30 10:15:12;;;;;;;18.80;7.90;;;;;;;19.93;40.72;99262.83;113768;1192;108301;-68
2021/10/30 10:17:40;;;;;;;20.20;8.20;;;;;;;19.99;39.03;99259.14;113771;1192;97586;-70
2021/10/30 10:20:12;;;;;;;20.20;8.40;;;;;;;19.91;38.98;99258.31;113850;1192;97617;-72
2021/10/30 10:22:47;;;;;;;21.20;9.30;;;;;;;19.90;39.73;99252.31;113685;1192;111071;-70
2021/10/30 10:25:33;;;;;;;20.20;8.90;;;;;;;19.93;38.73;99253.39;113794;1192;97649;-69
2021/10/30 10:28:41;;;;;;;26.40;13.50;;;;;;;19.90;38.73;99254.27;113695;1192;107436;-69
2021/10/30 10:31:19;;;;;;;20.90;9.10;;;;;;;19.95;38.88;99249.65;113704;1193;97634;-69
2021/10/30 10:34:09;;;;;;;18.70;8.10;;;;;;;19.97;38.07;99250.32;113829;1193;95145;-69
2021/10/30 10:36:39;;;;;;;18.50;7.20;;;;;;;19.99;38.10;99254.40;113396;1193;111026;-68
2021/10/30 10:39:12;;;;;;;20.30;7.80;;;;;;;20.04;37.64;99252.38;113884;1192;97659;-70
2021/10/30 10:41:40;;;;;;;16.40;7.50;;;;;;;20.05;37.83;99246.04;113601;1192;107571;-70
2021/10/30 10:44:13;;;;;;;18.30;7.60;;;;;;;20.09;38.05;99248.14;113593;1192;97576;-70
2021/10/30 10:46:48;;;;;;;20.50;7.60;;;;;;;20.17;37.92;99241.81;113475;1192;98693;-70
2021/10/30 10:52:23;;;;;;;19.50;7.30;;;;;;;20.24;36.69;99235.06;113436;1193;98256;-71
2021/10/30 10:55:02;;;;;;;21.40;8.90;;;;;;;20.15;36.65;99239.19;113657;1193;107414;-70
2021/10/30 10:58:00;;;;;;;16.30;7.20;;;;;;;20.14;36.44;99241.25;113702;1192;97638;-69
2021/10/30 11:00:29;;;;;;;19.40;7.30;;;;;;;20.16;35.67;99236.21;113642;1192;97647;-70
2021/10/30 11:03:02;;;;;;;17.20;7.10;;;;;;;20.09;35.83;99232.08;113484;1192;111150;-69
2021/10/30 11:05:35;;;;;;;20.10;7.90;;;;;;;20.08;35.71;99225.19;113477;1192;94958;-70
2021/10/30 11:08:30;;;;;;;18.80;7.90;;;;;;;20.09;35.91;99222.92;113489;1192;106290;-69
2021/10/30 11:11:09;;;;;;;22.70;11.50;;;;;;;20.16;35.69;99221.95;113360;1193;97526;-70
2021/10/30 11:13:46;;;;;;;18.60;8.40;;;;;;;20.17;35.77;99220.73;113519;1193;97575;-70
2021/10/30 11:16:14;;;;;;;18.00;7.60;;;;;;;20.21;35.40;99217.80;113384;1179;111226;-71
2021/10/30 11:18:48;;;;;;;23.40;8.20;;;;;;;20.21;35.25;99214.53;113487;1192;97550;-69
2021/10/30 11:21:29;;;;;;;19.10;8.10;;;;;;;20.20;35.15;99220.21;113416;1193;107629;-69
2021/10/30 11:24:17;;;;;;;18.40;7.40;;;;;;;20.20;35.20;99217.54;113544;1192;95055;-69
2021/10/30 11:26:55;;;;;;;18.50;7.90;;;;;;;20.28;35.61;99216.66;113337;1193;97659;-70
2021/10/30 11:29:23;;;;;;;22.60;10.10;;;;;;;20.34;35.32;99215.67;113322;1193;110958;-69
2021/10/30 11:31:57;;;;;;;20.20;8.30;;;;;;;20.35;34.90;99215.73;113408;1192;96433;-69
2021/10/30 11:34:26;;;;;;;17.90;7.10;;;;;;;20.34;34.59;99214.89;113427;1188;107495;-69